Terminal Aerodrome Forecast
Issued by NWS

Current Version | Previous Version | Text Only | Print | Product List | Glossary On
Versions: 1 2 3 4 5 6 7 8 9 10 11 12 13 14 15 16
000
FTUS42 KJAX 271720
TAFCRG
TAF
KCRG 271720Z 2718/2818 28014G23KT P6SM SCT040
     FM272300 30009KT P6SM FEW050
     FM280600 34004KT P6SM SKC
     FM281400 01008KT P6SM SKC=

USA.gov is the U.S. government's official web portal to all federal, state and local government web resources and services.